sensor_id;sensor_type;location;lat;lon;timestamp;P1;durP1;ratioP1;P2;durP2;ratioP2
2706;SDS011;7819;48.046;7.642;2022-10-04T00:00:11;8.97;;;5.50;;
2706;SDS011;7819;48.046;7.642;2022-10-04T00:02:37;6.40;;;5.10;;
2706;SDS011;7819;48.046;7.642;2022-10-04T00:05:06;4.87;;;4.37;;
2706;SDS011;7819;48.046;7.642;2022-10-04T00:07:40;7.70;;;5.93;;
2706;SDS011;7819;48.046;7.642;2022-10-04T00:10:16;6.23;;;4.10;;
2706;SDS011;7819;48.046;7.642;2022-10-04T00:12:47;8.13;;;4.90;;
2706;SDS011;7819;48.046;7.642;2022-10-04T00:15:19;5.73;;;5.00;;
2706;SDS011;7819;48.046;7.642;2022-10-04T00:17:47;6.13;;;5.43;;
2706;SDS011;7819;48.046;7.642;2022-10-04T00:25:47;7.13;;;4.70;;
2706;SDS011;7819;48.046;7.642;2022-10-04T00:28:13;7.60;;;6.30;;
2706;SDS011;7819;48.046;7.642;2022-10-04T00:30:38;10.80;;;6.43;;
2706;SDS011;7819;48.046;7.642;2022-10-04T00:33:04;7.27;;;6.40;;
2706;SDS011;7819;48.046;7.642;2022-10-04T00:37:56;7.95;;;6.80;;
2706;SDS011;7819;48.046;7.642;2022-10-04T00:40:22;7.30;;;5.80;;
2706;SDS011;7819;48.046;7.642;2022-10-04T00:42:51;9.13;;;6.63;;
2706;SDS011;7819;48.046;7.642;2022-10-04T00:45:22;8.07;;;5.90;;
2706;SDS011;7819;48.046;7.642;2022-10-04T00:48:32;12.10;;;6.83;;
2706;SDS011;7819;48.046;7.642;2022-10-04T00:50:38;8.17;;;6.40;;
2706;SDS011;7819;48.046;7.642;2022-10-04T00:53:34;9.83;;;6.47;;
2706;SDS011;7819;48.046;7.642;2022-10-04T00:56:01;5.23;;;4.73;;
2706;SDS011;7819;48.046;7.642;2022-10-04T00:59:02;7.77;;;5.00;;
2706;SDS011;7819;48.046;7.642;2022-10-04T01:01:12;6.50;;;5.50;;
2706;SDS011;7819;48.046;7.642;2022-10-04T01:03:39;8.50;;;4.83;;
2706;SDS011;7819;48.046;7.642;2022-10-04T01:06:07;5.40;;;4.90;;
2706;SDS011;7819;48.046;7.642;2022-10-04T01:08:35;10.93;;;6.17;;
2706;SDS011;7819;48.046;7.642;2022-10-04T01:11:06;6.23;;;4.80;;
2706;SDS011;7819;48.046;7.642;2022-10-04T01:13:36;7.43;;;5.83;;
2706;SDS011;7819;48.046;7.642;2022-10-04T01:16:03;7.43;;;6.53;;
2706;SDS011;7819;48.046;7.642;2022-10-04T01:18:32;5.80;;;5.30;;
2706;SDS011;7819;48.046;7.642;2022-10-04T01:23:41;5.60;;;5.00;;
2706;SDS011;7819;48.046;7.642;2022-10-04T01:26:33;7.57;;;5.43;;
2706;SDS011;7819;48.046;7.642;2022-10-04T01:28:59;6.27;;;5.67;;
2706;SDS011;7819;48.046;7.642;2022-10-04T01:31:25;6.47;;;5.30;;
2706;SDS011;7819;48.046;7.642;2022-10-04T01:33:50;6.00;;;4.97;;
2706;SDS011;7819;48.046;7.642;2022-10-04T01:36:16;5.00;;;4.60;;
2706;SDS011;7819;48.046;7.642;2022-10-04T01:38:41;4.50;;;4.10;;
2706;SDS011;7819;48.046;7.642;2022-10-04T01:41:06;6.07;;;5.17;;
2706;SDS011;7819;48.046;7.642;2022-10-04T01:43:36;6.40;;;5.10;;
2706;SDS011;7819;48.046;7.642;2022-10-04T01:46:10;5.87;;;4.00;;
2706;SDS011;7819;48.046;7.642;2022-10-04T01:48:37;5.73;;;4.47;;
2706;SDS011;7819;48.046;7.642;2022-10-04T01:51:13;5.23;;;4.70;;
2706;SDS011;7819;48.046;7.642;2022-10-04T01:53:43;5.50;;;4.10;;
2706;SDS011;7819;48.046;7.642;2022-10-04T01:56:14;6.33;;;5.00;;
2706;SDS011;7819;48.046;7.642;2022-10-04T02:01:09;5.63;;;5.13;;
2706;SDS011;7819;48.046;7.642;2022-10-04T02:03:40;4.47;;;4.07;;
2706;SDS011;7819;48.046;7.642;2022-10-04T02:06:07;4.80;;;4.40;;
2706;SDS011;7819;48.046;7.642;2022-10-04T02:08:34;4.87;;;4.07;;
2706;SDS011;7819;48.046;7.642;2022-10-04T02:11:02;4.90;;;4.50;;
2706;SDS011;7819;48.046;7.642;2022-10-04T02:13:32;5.03;;;4.53;;
2706;SDS011;7819;48.046;7.642;2022-10-04T02:15:58;5.57;;;4.67;;
2706;SDS011;7819;48.046;7.642;2022-10-04T02:18:23;6.03;;;4.83;;
2706;SDS011;7819;48.046;7.642;2022-10-04T02:20:49;5.10;;;3.70;;
2706;SDS011;7819;48.046;7.642;2022-10-04T02:23:16;5.33;;;4.83;;
2706;SDS011;7819;48.046;7.642;2022-10-04T02:25:42;4.27;;;3.97;;
2706;SDS011;7819;48.046;7.642;2022-10-04T02:28:10;4.37;;;3.97;;
2706;SDS011;7819;48.046;7.642;2022-10-04T02:30:37;5.17;;;4.67;;
2706;SDS011;7819;48.046;7.642;2022-10-04T02:33:03;5.20;;;4.70;;
2706;SDS011;7819;48.046;7.642;2022-10-04T02:35:30;7.23;;;4.30;;
2706;SDS011;7819;48.046;7.642;2022-10-04T02:38:07;6.13;;;4.30;;
2706;SDS011;7819;48.046;7.642;2022-10-04T02:40:36;5.27;;;4.77;;
2706;SDS011;7819;48.046;7.642;2022-10-04T02:43:21;4.00;;;3.57;;
2706;SDS011;7819;48.046;7.642;2022-10-04T02:45:49;4.57;;;4.17;;
2706;SDS011;7819;48.046;7.642;2022-10-04T02:50:44;4.53;;;4.13;;
2706;SDS011;7819;48.046;7.642;2022-10-04T02:53:17;4.10;;;3.70;;
2706;SDS011;7819;48.046;7.642;2022-10-04T02:55:43;5.87;;;5.27;;
2706;SDS011;7819;48.046;7.642;2022-10-04T02:58:08;4.27;;;3.60;;
2706;SDS011;7819;48.046;7.642;2022-10-04T03:00:35;5.30;;;4.00;;
2706;SDS011;7819;48.046;7.642;2022-10-04T03:03:10;4.80;;;4.20;;
2706;SDS011;7819;48.046;7.642;2022-10-04T03:05:37;5.30;;;4.50;;
2706;SDS011;7819;48.046;7.642;2022-10-04T03:08:05;6.30;;;5.20;;
2706;SDS011;7819;48.046;7.642;2022-10-04T03:10:31;6.57;;;5.27;;
2706;SDS011;7819;48.046;7.642;2022-10-04T03:12:56;6.33;;;4.47;;
2706;SDS011;7819;48.046;7.642;2022-10-04T03:15:21;4.90;;;4.43;;
2706;SDS011;7819;48.046;7.642;2022-10-04T03:17:46;4.97;;;4.47;;
2706;SDS011;7819;48.046;7.642;2022-10-04T03:20:12;5.27;;;4.77;;
2706;SDS011;7819;48.046;7.642;2022-10-04T03:22:40;4.90;;;4.40;;
2706;SDS011;7819;48.046;7.642;2022-10-04T03:25:08;5.17;;;4.67;;
2706;SDS011;7819;48.046;7.642;2022-10-04T03:27:36;4.50;;;4.10;;
2706;SDS011;7819;48.046;7.642;2022-10-04T03:30:01;5.07;;;4.57;;
2706;SDS011;7819;48.046;7.642;2022-10-04T03:32:27;5.20;;;4.27;;
2706;SDS011;7819;48.046;7.642;2022-10-04T03:34:55;7.30;;;5.00;;
2706;SDS011;7819;48.046;7.642;2022-10-04T03:37:21;5.63;;;4.30;;
2706;SDS011;7819;48.046;7.642;2022-10-04T03:39:50;11.63;;;4.90;;
2706;SDS011;7819;48.046;7.642;2022-10-04T03:42:17;8.10;;;5.90;;
2706;SDS011;7819;48.046;7.642;2022-10-04T03:44:44;11.53;;;7.40;;
2706;SDS011;7819;48.046;7.642;2022-10-04T03:47:10;11.07;;;6.47;;
2706;SDS011;7819;48.046;7.642;2022-10-04T03:49:36;6.30;;;5.67;;
2706;SDS011;7819;48.046;7.642;2022-10-04T03:52:01;7.80;;;5.60;;
2706;SDS011;7819;48.046;7.642;2022-10-04T03:54:27;7.30;;;5.60;;
2706;SDS011;7819;48.046;7.642;2022-10-04T03:56:53;6.47;;;5.03;;
2706;SDS011;7819;48.046;7.642;2022-10-04T03:59:19;5.37;;;4.87;;
2706;SDS011;7819;48.046;7.642;2022-10-04T04:01:47;5.50;;;4.80;;
2706;SDS011;7819;48.046;7.642;2022-10-04T04:06:44;10.17;;;6.57;;
2706;SDS011;7819;48.046;7.642;2022-10-04T04:09:18;10.20;;;7.60;;
2706;SDS011;7819;48.046;7.642;2022-10-04T04:11:44;8.67;;;7.20;;
2706;SDS011;7819;48.046;7.642;2022-10-04T04:14:12;10.77;;;8.80;;
2706;SDS011;7819;48.046;7.642;2022-10-04T04:16:38;9.33;;;8.10;;
2706;SDS011;7819;48.046;7.642;2022-10-04T04:19:08;16.43;;;7.77;;
2706;SDS011;7819;48.046;7.642;2022-10-04T04:21:35;16.27;;;8.83;;
2706;SDS011;7819;48.046;7.642;2022-10-04T04:24:05;13.57;;;7.93;;
2706;SDS011;7819;48.046;7.642;2022-10-04T04:26:35;11.60;;;7.60;;
2706;SDS011;7819;48.046;7.642;2022-10-04T04:29:44;11.10;;;7.17;;
2706;SDS011;7819;48.046;7.642;2022-10-04T04:34:25;10.97;;;6.20;;
2706;SDS011;7819;48.046;7.642;2022-10-04T04:36:57;16.80;;;8.37;;
2706;SDS011;7819;48.046;7.642;2022-10-04T04:39:23;7.70;;;5.67;;
2706;SDS011;7819;48.046;7.642;2022-10-04T04:44:52;8.33;;;5.33;;
2706;SDS011;7819;48.046;7.642;2022-10-04T04:49:50;6.70;;;5.73;;
2706;SDS011;7819;48.046;7.642;2022-10-04T04:52:16;6.23;;;5.23;;
2706;SDS011;7819;48.046;7.642;2022-10-04T04:54:44;6.13;;;5.53;;
2706;SDS011;7819;48.046;7.642;2022-10-04T04:57:13;9.10;;;5.30;;
2706;SDS011;7819;48.046;7.642;2022-10-04T04:59:38;6.53;;;5.53;;
2706;SDS011;7819;48.046;7.642;2022-10-04T05:02:25;5.83;;;5.23;;
2706;SDS011;7819;48.046;7.642;2022-10-04T05:05:08;5.00;;;4.50;;
2706;SDS011;7819;48.046;7.642;2022-10-04T05:07:33;5.57;;;5.07;;
2706;SDS011;7819;48.046;7.642;2022-10-04T05:09:58;4.93;;;4.43;;
2706;SDS011;7819;48.046;7.642;2022-10-04T05:12:24;6.77;;;4.70;;
2706;SDS011;7819;48.046;7.642;2022-10-04T05:14:50;5.67;;;4.63;;
2706;SDS011;7819;48.046;7.642;2022-10-04T05:17:17;6.20;;;5.37;;
2706;SDS011;7819;48.046;7.642;2022-10-04T05:19:43;7.80;;;5.80;;
2706;SDS011;7819;48.046;7.642;2022-10-04T05:22:09;11.50;;;7.10;;
2706;SDS011;7819;48.046;7.642;2022-10-04T05:24:36;13.83;;;7.87;;
2706;SDS011;7819;48.046;7.642;2022-10-04T05:27:03;10.30;;;7.10;;
2706;SDS011;7819;48.046;7.642;2022-10-04T05:29:33;7.60;;;6.70;;
2706;SDS011;7819;48.046;7.642;2022-10-04T05:34:44;10.60;;;7.23;;
2706;SDS011;7819;48.046;7.642;2022-10-04T05:37:27;15.13;;;9.07;;
2706;SDS011;7819;48.046;7.642;2022-10-04T05:47:53;12.37;;;7.83;;
2706;SDS011;7819;48.046;7.642;2022-10-04T05:50:20;11.20;;;8.80;;
2706;SDS011;7819;48.046;7.642;2022-10-04T05:52:48;13.67;;;8.07;;
2706;SDS011;7819;48.046;7.642;2022-10-04T05:55:15;9.53;;;7.13;;
2706;SDS011;7819;48.046;7.642;2022-10-04T05:57:54;11.13;;;7.33;;
2706;SDS011;7819;48.046;7.642;2022-10-04T06:00:25;13.60;;;9.90;;
2706;SDS011;7819;48.046;7.642;2022-10-04T06:15:39;11.80;;;8.60;;
2706;SDS011;7819;48.046;7.642;2022-10-04T06:21:07;11.40;;;7.70;;
2706;SDS011;7819;48.046;7.642;2022-10-04T06:23:41;10.43;;;7.70;;
2706;SDS011;7819;48.046;7.642;2022-10-04T06:26:11;11.87;;;8.87;;
2706;SDS011;7819;48.046;7.642;2022-10-04T06:28:42;11.83;;;8.03;;
2706;SDS011;7819;48.046;7.642;2022-10-04T06:36:21;14.57;;;9.63;;
2706;SDS011;7819;48.046;7.642;2022-10-04T06:41:40;12.80;;;8.60;;
2706;SDS011;7819;48.046;7.642;2022-10-04T06:46:38;14.33;;;9.03;;
2706;SDS011;7819;48.046;7.642;2022-10-04T06:49:12;13.67;;;9.57;;
2706;SDS011;7819;48.046;7.642;2022-10-04T06:51:49;12.53;;;9.30;;
2706;SDS011;7819;48.046;7.642;2022-10-04T07:02:11;9.83;;;7.77;;
2706;SDS011;7819;48.046;7.642;2022-10-04T07:04:40;11.97;;;8.47;;
2706;SDS011;7819;48.046;7.642;2022-10-04T07:12:42;12.23;;;9.43;;
2706;SDS011;7819;48.046;7.642;2022-10-04T07:15:14;11.50;;;9.37;;
2706;SDS011;7819;48.046;7.642;2022-10-04T07:17:40;12.30;;;9.10;;
2706;SDS011;7819;48.046;7.642;2022-10-04T07:20:13;14.43;;;10.20;;
2706;SDS011;7819;48.046;7.642;2022-10-04T07:23:02;14.00;;;9.60;;
2706;SDS011;7819;48.046;7.642;2022-10-04T07:25:30;13.50;;;10.10;;
2706;SDS011;7819;48.046;7.642;2022-10-04T07:30:59;11.77;;;8.93;;
2706;SDS011;7819;48.046;7.642;2022-10-04T07:33:27;12.07;;;8.90;;
2706;SDS011;7819;48.046;7.642;2022-10-04T07:36:28;10.77;;;9.03;;
2706;SDS011;7819;48.046;7.642;2022-10-04T07:38:52;13.23;;;10.40;;
2706;SDS011;7819;48.046;7.642;2022-10-04T07:41:24;14.47;;;9.70;;
2706;SDS011;7819;48.046;7.642;2022-10-04T07:43:52;13.43;;;9.47;;
2706;SDS011;7819;48.046;7.642;2022-10-04T07:46:42;10.50;;;8.40;;
2706;SDS011;7819;48.046;7.642;2022-10-04T07:49:16;9.33;;;8.27;;
2706;SDS011;7819;48.046;7.642;2022-10-04T08:07:14;12.47;;;9.20;;
2706;SDS011;7819;48.046;7.642;2022-10-04T08:12:17;12.40;;;10.23;;
2706;SDS011;7819;48.046;7.642;2022-10-04T08:28:02;12.33;;;9.10;;
2706;SDS011;7819;48.046;7.642;2022-10-04T08:38:34;15.80;;;11.43;;
2706;SDS011;7819;48.046;7.642;2022-10-04T09:12:43;18.13;;;12.33;;
2706;SDS011;7819;48.046;7.642;2022-10-04T09:15:15;16.00;;;13.40;;
2706;SDS011;7819;48.046;7.642;2022-10-04T09:20:21;18.33;;;13.20;;
2706;SDS011;7819;48.046;7.642;2022-10-04T09:22:47;15.03;;;13.30;;
2706;SDS011;7819;48.046;7.642;2022-10-04T09:28:05;15.30;;;12.80;;
2706;SDS011;7819;48.046;7.642;2022-10-04T09:38:22;16.80;;;13.50;;
2706;SDS011;7819;48.046;7.642;2022-10-04T09:46:17;15.07;;;12.60;;
2706;SDS011;7819;48.046;7.642;2022-10-04T09:54:06;15.77;;;12.73;;
2706;SDS011;7819;48.046;7.642;2022-10-04T10:01:56;18.40;;;13.17;;
2706;SDS011;7819;48.046;7.642;2022-10-04T10:07:16;16.83;;;13.73;;
2706;SDS011;7819;48.046;7.642;2022-10-04T10:10:05;16.70;;;14.30;;
2706;SDS011;7819;48.046;7.642;2022-10-04T10:16:02;18.80;;;14.57;;
2706;SDS011;7819;48.046;7.642;2022-10-04T10:21:09;15.90;;;13.40;;
2706;SDS011;7819;48.046;7.642;2022-10-04T10:23:51;15.00;;;13.40;;
2706;SDS011;7819;48.046;7.642;2022-10-04T10:44:09;12.47;;;10.83;;
2706;SDS011;7819;48.046;7.642;2022-10-04T10:46:55;11.13;;;10.03;;
2706;SDS011;7819;48.046;7.642;2022-10-04T10:52:16;11.10;;;9.40;;
2706;SDS011;7819;48.046;7.642;2022-10-04T11:07:31;10.30;;;8.57;;
2706;SDS011;7819;48.046;7.642;2022-10-04T11:12:46;10.20;;;7.27;;
2706;SDS011;7819;48.046;7.642;2022-10-04T11:15:37;6.37;;;5.77;;
2706;SDS011;7819;48.046;7.642;2022-10-04T11:18:10;8.20;;;6.40;;
2706;SDS011;7819;48.046;7.642;2022-10-04T11:33:52;5.33;;;4.83;;
2706;SDS011;7819;48.046;7.642;2022-10-04T11:41:13;5.70;;;5.20;;
2706;SDS011;7819;48.046;7.642;2022-10-04T11:46:34;6.73;;;4.63;;
2706;SDS011;7819;48.046;7.642;2022-10-04T12:10:19;5.67;;;5.07;;
2706;SDS011;7819;48.046;7.642;2022-10-04T12:31:12;6.00;;;4.70;;
2706;SDS011;7819;48.046;7.642;2022-10-04T12:42:08;4.50;;;4.10;;
2706;SDS011;7819;48.046;7.642;2022-10-04T12:54:29;6.20;;;3.70;;
2706;SDS011;7819;48.046;7.642;2022-10-04T12:59:29;5.20;;;3.80;;
2706;SDS011;7819;48.046;7.642;2022-10-04T13:04:58;4.77;;;4.33;;
2706;SDS011;7819;48.046;7.642;2022-10-04T13:07:41;5.10;;;4.60;;
2706;SDS011;7819;48.046;7.642;2022-10-04T13:10:18;4.67;;;4.17;;
2706;SDS011;7819;48.046;7.642;2022-10-04T13:13:06;4.87;;;4.37;;
2706;SDS011;7819;48.046;7.642;2022-10-04T13:15:38;6.97;;;3.80;;
2706;SDS011;7819;48.046;7.642;2022-10-04T13:20:44;6.40;;;4.53;;
2706;SDS011;7819;48.046;7.642;2022-10-04T13:23:15;5.47;;;4.10;;
2706;SDS011;7819;48.046;7.642;2022-10-04T13:31:37;6.53;;;3.92;;
2706;SDS011;7819;48.046;7.642;2022-10-04T13:33:40;5.87;;;4.20;;
2706;SDS011;7819;48.046;7.642;2022-10-04T13:36:13;4.23;;;3.87;;
2706;SDS011;7819;48.046;7.642;2022-10-04T13:49:29;4.57;;;3.57;;
2706;SDS011;7819;48.046;7.642;2022-10-04T13:52:06;4.77;;;4.27;;
2706;SDS011;7819;48.046;7.642;2022-10-04T13:57:59;3.30;;;2.80;;
2706;SDS011;7819;48.046;7.642;2022-10-04T14:08:42;5.80;;;3.37;;
2706;SDS011;7819;48.046;7.642;2022-10-04T14:17:00;3.30;;;3.00;;
2706;SDS011;7819;48.046;7.642;2022-10-04T14:29:58;6.57;;;4.00;;
2706;SDS011;7819;48.046;7.642;2022-10-04T14:35:14;5.23;;;3.60;;
2706;SDS011;7819;48.046;7.642;2022-10-04T15:01:19;3.60;;;3.30;;
2706;SDS011;7819;48.046;7.642;2022-10-04T15:06:12;3.10;;;2.80;;
2706;SDS011;7819;48.046;7.642;2022-10-04T15:14:19;3.33;;;3.03;;
2706;SDS011;7819;48.046;7.642;2022-10-04T15:16:49;4.53;;;3.23;;
2706;SDS011;7819;48.046;7.642;2022-10-04T15:32:05;3.40;;;3.10;;
2706;SDS011;7819;48.046;7.642;2022-10-04T15:37:45;3.40;;;2.97;;
2706;SDS011;7819;48.046;7.642;2022-10-04T15:42:35;3.47;;;3.10;;
2706;SDS011;7819;48.046;7.642;2022-10-04T15:45:08;4.43;;;3.20;;
2706;SDS011;7819;48.046;7.642;2022-10-04T15:50:28;4.30;;;3.37;;
2706;SDS011;7819;48.046;7.642;2022-10-04T15:53:10;6.30;;;3.10;;
2706;SDS011;7819;48.046;7.642;2022-10-04T15:59:06;5.07;;;3.50;;
2706;SDS011;7819;48.046;7.642;2022-10-04T16:08:27;3.37;;;3.10;;
2706;SDS011;7819;48.046;7.642;2022-10-04T16:13:35;4.03;;;3.40;;
2706;SDS011;7819;48.046;7.642;2022-10-04T16:21:03;3.27;;;2.97;;
2706;SDS011;7819;48.046;7.642;2022-10-04T16:23:37;2.73;;;2.50;;
2706;SDS011;7819;48.046;7.642;2022-10-04T16:37:17;3.20;;;2.90;;
2706;SDS011;7819;48.046;7.642;2022-10-04T16:39:48;4.70;;;3.83;;
2706;SDS011;7819;48.046;7.642;2022-10-04T16:50:12;7.73;;;3.77;;
2706;SDS011;7819;48.046;7.642;2022-10-04T16:53:01;4.90;;;4.50;;
2706;SDS011;7819;48.046;7.642;2022-10-04T17:00:46;6.17;;;4.03;;
2706;SDS011;7819;48.046;7.642;2022-10-04T17:03:30;7.80;;;6.10;;
2706;SDS011;7819;48.046;7.642;2022-10-04T17:06:09;7.27;;;5.27;;
2706;SDS011;7819;48.046;7.642;2022-10-04T17:08:44;4.87;;;4.37;;
2706;SDS011;7819;48.046;7.642;2022-10-04T17:11:14;5.57;;;4.97;;
2706;SDS011;7819;48.046;7.642;2022-10-04T17:16:10;21.20;;;18.90;;
2706;SDS011;7819;48.046;7.642;2022-10-04T17:18:44;7.50;;;6.70;;
2706;SDS011;7819;48.046;7.642;2022-10-04T17:32:26;9.10;;;7.63;;
2706;SDS011;7819;48.046;7.642;2022-10-04T17:37:52;9.70;;;8.70;;
2706;SDS011;7819;48.046;7.642;2022-10-04T17:40:36;11.07;;;10.07;;
2706;SDS011;7819;48.046;7.642;2022-10-04T17:48:23;8.60;;;6.73;;
2706;SDS011;7819;48.046;7.642;2022-10-04T17:53:54;8.10;;;7.40;;
2706;SDS011;7819;48.046;7.642;2022-10-04T17:59:40;8.00;;;7.20;;
2706;SDS011;7819;48.046;7.642;2022-10-04T18:02:22;7.90;;;6.33;;
2706;SDS011;7819;48.046;7.642;2022-10-04T18:04:53;6.60;;;6.00;;
2706;SDS011;7819;48.046;7.642;2022-10-04T18:07:20;6.37;;;5.77;;
2706;SDS011;7819;48.046;7.642;2022-10-04T18:09:47;6.60;;;5.90;;
2706;SDS011;7819;48.046;7.642;2022-10-04T18:12:22;7.00;;;5.40;;
2706;SDS011;7819;48.046;7.642;2022-10-04T18:14:57;10.20;;;5.63;;
2706;SDS011;7819;48.046;7.642;2022-10-04T18:20:00;6.27;;;5.77;;
2706;SDS011;7819;48.046;7.642;2022-10-04T18:22:30;8.10;;;6.57;;
2706;SDS011;7819;48.046;7.642;2022-10-04T18:27:50;6.93;;;6.23;;
2706;SDS011;7819;48.046;7.642;2022-10-04T18:30:19;8.77;;;6.50;;
2706;SDS011;7819;48.046;7.642;2022-10-04T18:32:49;7.47;;;6.70;;
2706;SDS011;7819;48.046;7.642;2022-10-04T18:35:30;7.60;;;7.00;;
2706;SDS011;7819;48.046;7.642;2022-10-04T18:37:57;17.23;;;13.03;;
2706;SDS011;7819;48.046;7.642;2022-10-04T18:40:42;10.37;;;9.37;;
2706;SDS011;7819;48.046;7.642;2022-10-04T18:43:23;10.07;;;8.97;;
2706;SDS011;7819;48.046;7.642;2022-10-04T18:46:00;10.40;;;8.17;;
2706;SDS011;7819;48.046;7.642;2022-10-04T18:48:36;12.27;;;10.97;;
2706;SDS011;7819;48.046;7.642;2022-10-04T18:53:48;17.30;;;14.70;;
2706;SDS011;7819;48.046;7.642;2022-10-04T18:56:16;19.20;;;12.43;;
2706;SDS011;7819;48.046;7.642;2022-10-04T18:58:45;10.00;;;9.00;;
2706;SDS011;7819;48.046;7.642;2022-10-04T19:12:04;7.70;;;6.57;;
2706;SDS011;7819;48.046;7.642;2022-10-04T19:14:40;7.77;;;6.97;;
2706;SDS011;7819;48.046;7.642;2022-10-04T19:17:27;7.03;;;6.20;;
2706;SDS011;7819;48.046;7.642;2022-10-04T19:20:17;6.33;;;5.80;;
2706;SDS011;7819;48.046;7.642;2022-10-04T19:27:41;6.90;;;6.20;;
2706;SDS011;7819;48.046;7.642;2022-10-04T19:30:18;8.00;;;7.20;;
2706;SDS011;7819;48.046;7.642;2022-10-04T19:38:03;9.83;;;5.93;;
2706;SDS011;7819;48.046;7.642;2022-10-04T19:43:07;9.83;;;8.93;;
2706;SDS011;7819;48.046;7.642;2022-10-04T19:45:41;8.70;;;7.27;;
2706;SDS011;7819;48.046;7.642;2022-10-04T19:48:20;6.20;;;5.23;;
2706;SDS011;7819;48.046;7.642;2022-10-04T19:50:55;8.47;;;7.57;;
2706;SDS011;7819;48.046;7.642;2022-10-04T19:53:32;11.23;;;7.77;;
2706;SDS011;7819;48.046;7.642;2022-10-04T19:55:59;9.93;;;8.97;;
2706;SDS011;7819;48.046;7.642;2022-10-04T19:58:41;11.40;;;10.00;;
2706;SDS011;7819;48.046;7.642;2022-10-04T20:01:13;10.37;;;9.03;;
2706;SDS011;7819;48.046;7.642;2022-10-04T20:03:38;7.47;;;6.77;;
2706;SDS011;7819;48.046;7.642;2022-10-04T20:06:04;10.43;;;5.97;;
2706;SDS011;7819;48.046;7.642;2022-10-04T20:11:15;4.50;;;4.00;;
2706;SDS011;7819;48.046;7.642;2022-10-04T20:13:42;4.70;;;3.73;;
2706;SDS011;7819;48.046;7.642;2022-10-04T20:16:07;5.00;;;3.77;;
2706;SDS011;7819;48.046;7.642;2022-10-04T20:26:02;5.80;;;4.40;;
2706;SDS011;7819;48.046;7.642;2022-10-04T20:30:54;4.67;;;3.47;;
2706;SDS011;7819;48.046;7.642;2022-10-04T20:44:39;6.10;;;4.23;;
2706;SDS011;7819;48.046;7.642;2022-10-04T20:47:13;6.03;;;4.47;;
2706;SDS011;7819;48.046;7.642;2022-10-04T20:49:42;5.73;;;3.83;;
2706;SDS011;7819;48.046;7.642;2022-10-04T20:52:10;5.63;;;3.97;;
2706;SDS011;7819;48.046;7.642;2022-10-04T20:54:36;4.57;;;4.17;;
2706;SDS011;7819;48.046;7.642;2022-10-04T20:57:01;5.87;;;3.93;;
2706;SDS011;7819;48.046;7.642;2022-10-04T20:59:27;4.53;;;4.13;;
2706;SDS011;7819;48.046;7.642;2022-10-04T21:01:59;4.70;;;4.30;;
2706;SDS011;7819;48.046;7.642;2022-10-04T21:04:25;3.50;;;3.20;;
2706;SDS011;7819;48.046;7.642;2022-10-04T21:06:57;3.80;;;3.50;;
2706;SDS011;7819;48.046;7.642;2022-10-04T21:09:23;4.73;;;4.20;;
2706;SDS011;7819;48.046;7.642;2022-10-04T21:11:50;3.93;;;3.53;;
2706;SDS011;7819;48.046;7.642;2022-10-04T21:14:22;3.67;;;2.60;;
2706;SDS011;7819;48.046;7.642;2022-10-04T21:16:48;4.37;;;3.97;;
2706;SDS011;7819;48.046;7.642;2022-10-04T21:21:54;3.80;;;3.50;;
2706;SDS011;7819;48.046;7.642;2022-10-04T21:27:03;3.40;;;3.10;;
2706;SDS011;7819;48.046;7.642;2022-10-04T21:29:29;3.50;;;3.20;;
2706;SDS011;7819;48.046;7.642;2022-10-04T21:31:54;4.10;;;2.90;;
2706;SDS011;7819;48.046;7.642;2022-10-04T21:34:19;4.63;;;3.73;;
2706;SDS011;7819;48.046;7.642;2022-10-04T21:36:45;4.20;;;3.80;;
2706;SDS011;7819;48.046;7.642;2022-10-04T21:39:10;3.47;;;3.17;;
2706;SDS011;7819;48.046;7.642;2022-10-04T21:41:35;3.70;;;3.40;;
2706;SDS011;7819;48.046;7.642;2022-10-04T21:44:00;6.13;;;3.77;;
2706;SDS011;7819;48.046;7.642;2022-10-04T21:46:26;3.40;;;3.10;;
2706;SDS011;7819;48.046;7.642;2022-10-04T21:48:51;3.60;;;3.30;;
2706;SDS011;7819;48.046;7.642;2022-10-04T21:51:16;3.33;;;3.03;;
2706;SDS011;7819;48.046;7.642;2022-10-04T21:53:41;4.53;;;4.13;;
2706;SDS011;7819;48.046;7.642;2022-10-04T21:56:06;4.40;;;3.00;;
2706;SDS011;7819;48.046;7.642;2022-10-04T21:58:32;3.73;;;3.40;;
2706;SDS011;7819;48.046;7.642;2022-10-04T22:00:57;5.43;;;4.47;;
2706;SDS011;7819;48.046;7.642;2022-10-04T22:03:22;3.60;;;3.30;;
2706;SDS011;7819;48.046;7.642;2022-10-04T22:05:47;4.30;;;3.80;;
2706;SDS011;7819;48.046;7.642;2022-10-04T22:08:13;3.77;;;3.40;;
2706;SDS011;7819;48.046;7.642;2022-10-04T22:10:38;4.23;;;3.60;;
2706;SDS011;7819;48.046;7.642;2022-10-04T22:13:04;4.60;;;4.20;;
2706;SDS011;7819;48.046;7.642;2022-10-04T22:15:29;6.33;;;3.90;;
2706;SDS011;7819;48.046;7.642;2022-10-04T22:17:54;4.13;;;3.60;;
2706;SDS011;7819;48.046;7.642;2022-10-04T22:20:20;4.87;;;4.00;;
2706;SDS011;7819;48.046;7.642;2022-10-04T22:22:45;4.30;;;3.90;;
2706;SDS011;7819;48.046;7.642;2022-10-04T22:25:18;4.40;;;3.97;;
2706;SDS011;7819;48.046;7.642;2022-10-04T22:27:43;5.43;;;3.93;;
2706;SDS011;7819;48.046;7.642;2022-10-04T22:30:25;5.03;;;4.53;;
2706;SDS011;7819;48.046;7.642;2022-10-04T22:32:52;5.20;;;4.50;;
2706;SDS011;7819;48.046;7.642;2022-10-04T22:35:18;4.50;;;3.50;;
2706;SDS011;7819;48.046;7.642;2022-10-04T22:37:44;5.47;;;4.97;;
2706;SDS011;7819;48.046;7.642;2022-10-04T22:40:42;5.20;;;4.33;;
2706;SDS011;7819;48.046;7.642;2022-10-04T22:43:01;4.33;;;3.93;;
2706;SDS011;7819;48.046;7.642;2022-10-04T22:45:28;4.07;;;3.53;;
2706;SDS011;7819;48.046;7.642;2022-10-04T22:47:58;3.80;;;3.30;;
2706;SDS011;7819;48.046;7.642;2022-10-04T22:50:29;4.13;;;3.70;;
2706;SDS011;7819;48.046;7.642;2022-10-04T22:52:55;4.57;;;4.17;;
2706;SDS011;7819;48.046;7.642;2022-10-04T22:55:21;4.07;;;3.67;;
2706;SDS011;7819;48.046;7.642;2022-10-04T22:57:46;4.40;;;4.00;;
2706;SDS011;7819;48.046;7.642;2022-10-04T23:00:11;5.70;;;4.07;;
2706;SDS011;7819;48.046;7.642;2022-10-04T23:02:37;4.63;;;4.23;;
2706;SDS011;7819;48.046;7.642;2022-10-04T23:05:16;6.20;;;4.90;;
2706;SDS011;7819;48.046;7.642;2022-10-04T23:07:44;4.30;;;3.90;;
2706;SDS011;7819;48.046;7.642;2022-10-04T23:10:11;3.67;;;3.27;;
2706;SDS011;7819;48.046;7.642;2022-10-04T23:12:36;4.53;;;4.03;;
2706;SDS011;7819;48.046;7.642;2022-10-04T23:15:03;7.43;;;4.27;;
2706;SDS011;7819;48.046;7.642;2022-10-04T23:17:32;5.23;;;3.73;;
2706;SDS011;7819;48.046;7.642;2022-10-04T23:20:17;4.10;;;3.50;;
2706;SDS011;7819;48.046;7.642;2022-10-04T23:22:47;5.40;;;4.20;;
2706;SDS011;7819;48.046;7.642;2022-10-04T23:27:38;5.37;;;4.23;;
2706;SDS011;7819;48.046;7.642;2022-10-04T23:30:03;4.30;;;3.90;;
2706;SDS011;7819;48.046;7.642;2022-10-04T23:32:29;4.60;;;3.93;;
2706;SDS011;7819;48.046;7.642;2022-10-04T23:34:54;5.07;;;4.47;;
2706;SDS011;7819;48.046;7.642;2022-10-04T23:37:26;5.17;;;4.67;;
2706;SDS011;7819;48.046;7.642;2022-10-04T23:39:53;4.43;;;4.03;;
2706;SDS011;7819;48.046;7.642;2022-10-04T23:42:19;4.70;;;4.30;;
2706;SDS011;7819;48.046;7.642;2022-10-04T23:44:48;4.13;;;3.73;;
2706;SDS011;7819;48.046;7.642;2022-10-04T23:47:17;4.53;;;4.10;;
2706;SDS011;7819;48.046;7.642;2022-10-04T23:49:44;4.50;;;4.03;;
2706;SDS011;7819;48.046;7.642;2022-10-04T23:52:13;6.10;;;3.60;;
2706;SDS011;7819;48.046;7.642;2022-10-04T23:54:39;4.57;;;3.80;;
2706;SDS011;7819;48.046;7.642;2022-10-04T23:57:06;4.20;;;3.80;;
2706;SDS011;7819;48.046;7.642;2022-10-04T23:59:32;7.33;;;3.50;;
